Blaney Park, Michigan
Current Conditions -  °F | °C
As of 7:34 PM on Monday 24 Nov 2014 (Local Time) from KISQ Reporting Station
Light Snow Light Snow  
Wind Chill: 20°   Ceiling: 1200
Heat Index: 30°   Visibility: 1.5mi
Dew Point: 28°   Wind: 14mph
Humidity: 93%   Direction: 320°NW
Pressure: 29.27"   Gusts: NA
Location:  46.2466°N, 85.928°W
Report Text: KISQ 250034Z AUTO 32012KT 1 1/2SM -SN OVC012 M01/M02 A2927 RMK AO2 T10101020
Loading
Personal Weather Stations






























Interactive Weather Map New forecast layout! Learn more

10-Day Weather Forecast

Advertisements
Track Severe Weather on mobile